sensor_id;sensor_type;location;lat;lon;timestamp;temperature;humidity
19152;DHT22;9708;53.114;9.388;2023-02-01T03:41:59;6.30;99.90
19152;DHT22;9708;53.114;9.388;2023-02-01T03:44:31;6.10;99.90
19152;DHT22;9708;53.114;9.388;2023-02-01T03:47:01;6.10;99.90
19152;DHT22;9708;53.114;9.388;2023-02-01T03:49:33;6.10;99.90
19152;DHT22;9708;53.114;9.388;2023-02-01T03:52:02;6.10;99.90
19152;DHT22;9708;53.114;9.388;2023-02-01T03:54:30;6.00;99.90
19152;DHT22;9708;53.114;9.388;2023-02-01T03:57:02;6.10;99.90
19152;DHT22;9708;53.114;9.388;2023-02-01T03:59:31;6.00;99.90
19152;DHT22;9708;53.114;9.388;2023-02-01T04:01:58;6.10;99.90
19152;DHT22;9708;53.114;9.388;2023-02-01T04:04:25;6.00;99.90
19152;DHT22;9708;53.114;9.388;2023-02-01T04:06:51;5.90;99.90
19152;DHT22;9708;53.114;9.388;2023-02-01T04:09:18;5.90;99.90
19152;DHT22;9708;53.114;9.388;2023-02-01T04:11:45;5.80;99.90
19152;DHT22;9708;53.114;9.388;2023-02-01T04:14:13;5.70;99.90
19152;DHT22;9708;53.114;9.388;2023-02-01T04:16:40;5.70;99.90
19152;DHT22;9708;53.114;9.388;2023-02-01T04:19:07;5.70;99.90
19152;DHT22;9708;53.114;9.388;2023-02-01T04:21:34;5.60;99.90
19152;DHT22;9708;53.114;9.388;2023-02-01T04:24:00;5.60;99.90
19152;DHT22;9708;53.114;9.388;2023-02-01T04:26:27;5.50;99.90
19152;DHT22;9708;53.114;9.388;2023-02-01T04:28:54;5.50;99.90
19152;DHT22;9708;53.114;9.388;2023-02-01T04:31:22;5.50;99.90
19152;DHT22;9708;53.114;9.388;2023-02-01T04:33:51;5.40;99.90
19152;DHT22;9708;53.114;9.388;2023-02-01T04:36:19;5.40;99.90
19152;DHT22;9708;53.114;9.388;2023-02-01T04:38:47;5.40;99.90
19152;DHT22;9708;53.114;9.388;2023-02-01T04:41:14;5.30;99.90
19152;DHT22;9708;53.114;9.388;2023-02-01T04:43:44;5.20;99.90
19152;DHT22;9708;53.114;9.388;2023-02-01T04:46:11;5.10;99.90
19152;DHT22;9708;53.114;9.388;2023-02-01T04:48:39;5.00;99.90
19152;DHT22;9708;53.114;9.388;2023-02-01T04:51:06;5.00;99.90
19152;DHT22;9708;53.114;9.388;2023-02-01T04:53:32;5.00;99.90
19152;DHT22;9708;53.114;9.388;2023-02-01T04:55:59;5.00;99.90
19152;DHT22;9708;53.114;9.388;2023-02-01T04:58:26;5.00;99.90
19152;DHT22;9708;53.114;9.388;2023-02-01T05:00:53;4.90;99.90
19152;DHT22;9708;53.114;9.388;2023-02-01T05:03:19;4.80;99.90
19152;DHT22;9708;53.114;9.388;2023-02-01T05:05:48;4.80;99.90
19152;DHT22;9708;53.114;9.388;2023-02-01T05:08:15;4.80;99.90
19152;DHT22;9708;53.114;9.388;2023-02-01T05:10:42;4.80;99.90
19152;DHT22;9708;53.114;9.388;2023-02-01T05:13:11;4.80;99.90
19152;DHT22;9708;53.114;9.388;2023-02-01T05:16:04;4.80;99.90
19152;DHT22;9708;53.114;9.388;2023-02-01T05:18:31;4.80;99.90
19152;DHT22;9708;53.114;9.388;2023-02-01T05:20:59;4.80;99.90
19152;DHT22;9708;53.114;9.388;2023-02-01T05:23:26;4.80;99.90
19152;DHT22;9708;53.114;9.388;2023-02-01T05:25:58;4.80;99.90
19152;DHT22;9708;53.114;9.388;2023-02-01T05:28:25;4.80;99.90
19152;DHT22;9708;53.114;9.388;2023-02-01T05:30:51;4.90;99.90
19152;DHT22;9708;53.114;9.388;2023-02-01T05:33:18;5.00;99.90
19152;DHT22;9708;53.114;9.388;2023-02-01T05:35:45;5.00;99.90
19152;DHT22;9708;53.114;9.388;2023-02-01T05:38:13;5.10;99.90
19152;DHT22;9708;53.114;9.388;2023-02-01T05:40:40;5.20;99.90
19152;DHT22;9708;53.114;9.388;2023-02-01T05:43:06;5.20;99.90
19152;DHT22;9708;53.114;9.388;2023-02-01T05:45:33;5.20;99.90
19152;DHT22;9708;53.114;9.388;2023-02-01T05:48:00;5.20;99.90
19152;DHT22;9708;53.114;9.388;2023-02-01T05:50:27;5.30;99.90
19152;DHT22;9708;53.114;9.388;2023-02-01T05:52:54;5.30;99.90
19152;DHT22;9708;53.114;9.388;2023-02-01T05:55:22;5.30;99.90
19152;DHT22;9708;53.114;9.388;2023-02-01T05:57:48;5.30;99.90
19152;DHT22;9708;53.114;9.388;2023-02-01T06:00:16;5.30;99.90
19152;DHT22;9708;53.114;9.388;2023-02-01T06:02:43;5.30;99.90
19152;DHT22;9708;53.114;9.388;2023-02-01T06:05:10;5.40;99.90
19152;DHT22;9708;53.114;9.388;2023-02-01T06:07:36;5.40;99.90
19152;DHT22;9708;53.114;9.388;2023-02-01T06:10:04;5.40;99.90
19152;DHT22;9708;53.114;9.388;2023-02-01T06:12:32;5.40;99.90
19152;DHT22;9708;53.114;9.388;2023-02-01T06:14:59;5.40;99.90
19152;DHT22;9708;53.114;9.388;2023-02-01T06:17:26;5.40;99.90
19152;DHT22;9708;53.114;9.388;2023-02-01T06:19:52;5.40;99.90
19152;DHT22;9708;53.114;9.388;2023-02-01T06:22:19;5.50;99.90
19152;DHT22;9708;53.114;9.388;2023-02-01T06:24:47;5.50;99.90
19152;DHT22;9708;53.114;9.388;2023-02-01T06:27:14;5.50;99.90
19152;DHT22;9708;53.114;9.388;2023-02-01T06:29:42;5.50;99.90
19152;DHT22;9708;53.114;9.388;2023-02-01T06:32:09;5.40;99.90
19152;DHT22;9708;53.114;9.388;2023-02-01T06:34:35;5.40;99.90
19152;DHT22;9708;53.114;9.388;2023-02-01T06:37:05;5.40;99.90
19152;DHT22;9708;53.114;9.388;2023-02-01T06:39:31;5.50;99.90
19152;DHT22;9708;53.114;9.388;2023-02-01T06:41:58;5.40;99.90
19152;DHT22;9708;53.114;9.388;2023-02-01T06:44:25;5.50;99.90
19152;DHT22;9708;53.114;9.388;2023-02-01T06:46:53;5.50;99.90
19152;DHT22;9708;53.114;9.388;2023-02-01T06:49:20;5.40;99.90
19152;DHT22;9708;53.114;9.388;2023-02-01T06:51:47;5.50;99.90
19152;DHT22;9708;53.114;9.388;2023-02-01T06:54:13;5.50;99.90
19152;DHT22;9708;53.114;9.388;2023-02-01T06:56:40;5.50;99.90
19152;DHT22;9708;53.114;9.388;2023-02-01T06:59:07;5.50;99.90
19152;DHT22;9708;53.114;9.388;2023-02-01T07:01:34;5.50;99.90
19152;DHT22;9708;53.114;9.388;2023-02-01T07:04:03;5.50;99.90
19152;DHT22;9708;53.114;9.388;2023-02-01T07:06:29;5.40;99.90
19152;DHT22;9708;53.114;9.388;2023-02-01T07:08:57;5.60;99.90
19152;DHT22;9708;53.114;9.388;2023-02-01T07:11:24;5.60;99.90
19152;DHT22;9708;53.114;9.388;2023-02-01T07:13:52;5.50;99.90
19152;DHT22;9708;53.114;9.388;2023-02-01T07:16:20;5.50;99.90
19152;DHT22;9708;53.114;9.388;2023-02-01T07:18:47;5.40;99.90
19152;DHT22;9708;53.114;9.388;2023-02-01T07:21:15;5.40;99.90
19152;DHT22;9708;53.114;9.388;2023-02-01T07:23:42;5.40;99.90
19152;DHT22;9708;53.114;9.388;2023-02-01T07:26:11;5.40;99.90
19152;DHT22;9708;53.114;9.388;2023-02-01T07:28:39;5.50;99.90
19152;DHT22;9708;53.114;9.388;2023-02-01T07:31:07;5.50;99.90
19152;DHT22;9708;53.114;9.388;2023-02-01T07:33:34;5.50;99.90
19152;DHT22;9708;53.114;9.388;2023-02-01T07:36:03;5.50;99.90
19152;DHT22;9708;53.114;9.388;2023-02-01T07:38:31;5.60;99.90
19152;DHT22;9708;53.114;9.388;2023-02-01T07:40:58;5.60;99.90
19152;DHT22;9708;53.114;9.388;2023-02-01T07:43:25;5.60;99.90
19152;DHT22;9708;53.114;9.388;2023-02-01T07:45:53;5.60;99.90
19152;DHT22;9708;53.114;9.388;2023-02-01T07:48:21;5.60;99.90
19152;DHT22;9708;53.114;9.388;2023-02-01T07:50:48;5.50;99.90
19152;DHT22;9708;53.114;9.388;2023-02-01T07:53:15;5.50;99.90
19152;DHT22;9708;53.114;9.388;2023-02-01T07:55:43;5.40;99.90
19152;DHT22;9708;53.114;9.388;2023-02-01T07:58:10;5.40;99.90
19152;DHT22;9708;53.114;9.388;2023-02-01T08:00:36;5.50;99.90
19152;DHT22;9708;53.114;9.388;2023-02-01T08:03:21;5.50;99.90
19152;DHT22;9708;53.114;9.388;2023-02-01T08:05:47;5.50;99.90
19152;DHT22;9708;53.114;9.388;2023-02-01T08:08:14;5.60;99.90
19152;DHT22;9708;53.114;9.388;2023-02-01T08:10:42;5.70;99.90
19152;DHT22;9708;53.114;9.388;2023-02-01T08:13:09;5.60;99.90
19152;DHT22;9708;53.114;9.388;2023-02-01T08:15:36;5.70;99.90
19152;DHT22;9708;53.114;9.388;2023-02-01T08:18:03;5.80;99.90
19152;DHT22;9708;53.114;9.388;2023-02-01T08:20:29;5.90;99.90
19152;DHT22;9708;53.114;9.388;2023-02-01T08:22:57;5.90;99.90
19152;DHT22;9708;53.114;9.388;2023-02-01T08:25:24;5.90;99.90
19152;DHT22;9708;53.114;9.388;2023-02-01T08:27:52;5.90;99.90
19152;DHT22;9708;53.114;9.388;2023-02-01T08:30:20;6.00;99.90
19152;DHT22;9708;53.114;9.388;2023-02-01T08:32:47;6.00;99.90
19152;DHT22;9708;53.114;9.388;2023-02-01T08:35:14;6.10;99.90
19152;DHT22;9708;53.114;9.388;2023-02-01T08:37:41;6.20;99.90
19152;DHT22;9708;53.114;9.388;2023-02-01T08:40:09;6.20;99.90
19152;DHT22;9708;53.114;9.388;2023-02-01T08:42:35;6.20;99.90
19152;DHT22;9708;53.114;9.388;2023-02-01T08:45:19;6.30;99.90
19152;DHT22;9708;53.114;9.388;2023-02-01T08:47:47;6.40;99.90
19152;DHT22;9708;53.114;9.388;2023-02-01T08:50:14;6.40;99.90
19152;DHT22;9708;53.114;9.388;2023-02-01T08:52:41;6.40;99.90
19152;DHT22;9708;53.114;9.388;2023-02-01T08:55:09;6.40;99.90
19152;DHT22;9708;53.114;9.388;2023-02-01T08:57:36;6.40;99.90
19152;DHT22;9708;53.114;9.388;2023-02-01T09:00:04;6.50;99.90
19152;DHT22;9708;53.114;9.388;2023-02-01T09:02:32;6.40;99.90
19152;DHT22;9708;53.114;9.388;2023-02-01T09:04:59;6.40;99.90
19152;DHT22;9708;53.114;9.388;2023-02-01T09:07:26;6.40;99.90
19152;DHT22;9708;53.114;9.388;2023-02-01T09:09:53;6.40;99.90
19152;DHT22;9708;53.114;9.388;2023-02-01T09:12:21;6.40;99.90
19152;DHT22;9708;53.114;9.388;2023-02-01T09:14:48;6.50;99.90
19152;DHT22;9708;53.114;9.388;2023-02-01T09:17:15;6.50;99.90
19152;DHT22;9708;53.114;9.388;2023-02-01T09:19:43;6.70;99.90
19152;DHT22;9708;53.114;9.388;2023-02-01T09:22:10;6.90;99.90
19152;DHT22;9708;53.114;9.388;2023-02-01T09:24:36;7.20;99.90
19152;DHT22;9708;53.114;9.388;2023-02-01T09:27:03;7.30;99.90
19152;DHT22;9708;53.114;9.388;2023-02-01T09:29:30;7.30;99.90
19152;DHT22;9708;53.114;9.388;2023-02-01T09:31:57;7.10;99.90
19152;DHT22;9708;53.114;9.388;2023-02-01T09:34:24;7.10;99.90
19152;DHT22;9708;53.114;9.388;2023-02-01T09:36:52;7.00;99.90
19152;DHT22;9708;53.114;9.388;2023-02-01T09:39:19;7.00;99.90
19152;DHT22;9708;53.114;9.388;2023-02-01T09:41:54;7.00;99.90
19152;DHT22;9708;53.114;9.388;2023-02-01T09:44:33;7.00;99.90
19152;DHT22;9708;53.114;9.388;2023-02-01T09:47:03;7.00;99.90
19152;DHT22;9708;53.114;9.388;2023-02-01T09:49:31;7.00;99.90
19152;DHT22;9708;53.114;9.388;2023-02-01T09:52:02;7.00;99.90
19152;DHT22;9708;53.114;9.388;2023-02-01T09:54:40;6.90;99.90
19152;DHT22;9708;53.114;9.388;2023-02-01T09:57:10;7.20;99.90
19152;DHT22;9708;53.114;9.388;2023-02-01T09:59:43;7.50;99.90
19152;DHT22;9708;53.114;9.388;2023-02-01T10:02:12;7.40;99.90
19152;DHT22;9708;53.114;9.388;2023-02-01T10:04:40;7.30;99.90
19152;DHT22;9708;53.114;9.388;2023-02-01T10:07:18;7.10;99.90
19152;DHT22;9708;53.114;9.388;2023-02-01T10:09:56;7.10;99.90
19152;DHT22;9708;53.114;9.388;2023-02-01T10:15:46;7.20;99.90
19152;DHT22;9708;53.114;9.388;2023-02-01T10:18:44;7.20;99.90
19152;DHT22;9708;53.114;9.388;2023-02-01T10:21:22;7.20;99.90
19152;DHT22;9708;53.114;9.388;2023-02-01T10:24:02;7.10;99.90
19152;DHT22;9708;53.114;9.388;2023-02-01T10:26:34;7.00;99.90
19152;DHT22;9708;53.114;9.388;2023-02-01T10:29:04;7.00;99.90
19152;DHT22;9708;53.114;9.388;2023-02-01T10:31:39;7.00;99.90
19152;DHT22;9708;53.114;9.388;2023-02-01T10:34:15;7.00;99.90
19152;DHT22;9708;53.114;9.388;2023-02-01T10:36:50;7.10;99.90
19152;DHT22;9708;53.114;9.388;2023-02-01T10:39:20;7.10;99.90
19152;DHT22;9708;53.114;9.388;2023-02-01T10:41:48;7.20;99.90
19152;DHT22;9708;53.114;9.388;2023-02-01T10:44:18;7.20;99.90
19152;DHT22;9708;53.114;9.388;2023-02-01T10:46:48;7.20;99.90
19152;DHT22;9708;53.114;9.388;2023-02-01T10:49:18;7.10;99.90
19152;DHT22;9708;53.114;9.388;2023-02-01T10:51:48;7.10;99.90
19152;DHT22;9708;53.114;9.388;2023-02-01T10:54:20;7.10;99.90
19152;DHT22;9708;53.114;9.388;2023-02-01T10:56:48;6.90;99.90
19152;DHT22;9708;53.114;9.388;2023-02-01T10:59:17;6.90;99.90
19152;DHT22;9708;53.114;9.388;2023-02-01T11:01:45;6.90;99.90
19152;DHT22;9708;53.114;9.388;2023-02-01T11:04:13;6.80;99.90
19152;DHT22;9708;53.114;9.388;2023-02-01T11:06:42;6.70;99.90
19152;DHT22;9708;53.114;9.388;2023-02-01T11:09:15;6.70;99.90
19152;DHT22;9708;53.114;9.388;2023-02-01T11:11:59;6.60;99.90
19152;DHT22;9708;53.114;9.388;2023-02-01T11:14:32;6.60;99.90
19152;DHT22;9708;53.114;9.388;2023-02-01T11:17:01;6.60;99.90
19152;DHT22;9708;53.114;9.388;2023-02-01T11:19:28;6.50;99.90
19152;DHT22;9708;53.114;9.388;2023-02-01T11:21:57;6.50;99.90
19152;DHT22;9708;53.114;9.388;2023-02-01T11:24:26;6.40;99.90
19152;DHT22;9708;53.114;9.388;2023-02-01T11:26:55;6.30;99.90
19152;DHT22;9708;53.114;9.388;2023-02-01T11:29:25;6.30;99.90
19152;DHT22;9708;53.114;9.388;2023-02-01T11:31:56;6.20;99.90
19152;DHT22;9708;53.114;9.388;2023-02-01T11:34:27;6.20;99.90
19152;DHT22;9708;53.114;9.388;2023-02-01T11:36:58;6.20;99.90
19152;DHT22;9708;53.114;9.388;2023-02-01T11:39:30;6.10;99.90
19152;DHT22;9708;53.114;9.388;2023-02-01T11:42:02;6.00;99.90
19152;DHT22;9708;53.114;9.388;2023-02-01T11:44:34;6.00;99.90
19152;DHT22;9708;53.114;9.388;2023-02-01T11:47:20;6.00;99.90
19152;DHT22;9708;53.114;9.388;2023-02-01T11:49:47;6.00;99.90
19152;DHT22;9708;53.114;9.388;2023-02-01T11:52:21;5.90;99.90
19152;DHT22;9708;53.114;9.388;2023-02-01T11:55:06;5.90;99.90
19152;DHT22;9708;53.114;9.388;2023-02-01T11:57:46;5.80;99.90
19152;DHT22;9708;53.114;9.388;2023-02-01T12:00:28;5.70;99.90
19152;DHT22;9708;53.114;9.388;2023-02-01T12:03:24;5.80;99.90
19152;DHT22;9708;53.114;9.388;2023-02-01T12:05:58;5.60;99.90
19152;DHT22;9708;53.114;9.388;2023-02-01T12:08:38;5.60;99.90
19152;DHT22;9708;53.114;9.388;2023-02-01T12:11:22;5.60;99.90
19152;DHT22;9708;53.114;9.388;2023-02-01T12:13:58;5.50;99.90
19152;DHT22;9708;53.114;9.388;2023-02-01T12:16:36;5.50;99.90
19152;DHT22;9708;53.114;9.388;2023-02-01T12:19:18;5.50;99.90
19152;DHT22;9708;53.114;9.388;2023-02-01T12:21:56;5.40;99.90
19152;DHT22;9708;53.114;9.388;2023-02-01T12:27:27;5.40;99.90
19152;DHT22;9708;53.114;9.388;2023-02-01T12:30:10;5.40;99.90
19152;DHT22;9708;53.114;9.388;2023-02-01T12:32:51;5.40;99.90
19152;DHT22;9708;53.114;9.388;2023-02-01T12:35:44;5.40;99.90
19152;DHT22;9708;53.114;9.388;2023-02-01T12:38:27;5.50;99.90
19152;DHT22;9708;53.114;9.388;2023-02-01T12:41:06;5.60;99.90
19152;DHT22;9708;53.114;9.388;2023-02-01T12:43:38;5.10;99.90
19152;DHT22;9708;53.114;9.388;2023-02-01T12:46:13;4.60;99.90
19152;DHT22;9708;53.114;9.388;2023-02-01T12:48:53;4.30;99.90
19152;DHT22;9708;53.114;9.388;2023-02-01T12:51:24;4.00;99.90
19152;DHT22;9708;53.114;9.388;2023-02-01T12:53:55;3.90;99.90
19152;DHT22;9708;53.114;9.388;2023-02-01T12:56:26;3.90;99.90
19152;DHT22;9708;53.114;9.388;2023-02-01T12:58:58;3.70;99.90
19152;DHT22;9708;53.114;9.388;2023-02-01T13:01:29;3.50;99.90
19152;DHT22;9708;53.114;9.388;2023-02-01T13:04:05;3.50;99.90
19152;DHT22;9708;53.114;9.388;2023-02-01T13:06:39;3.50;99.90
19152;DHT22;9708;53.114;9.388;2023-02-01T13:09:16;3.60;99.90
19152;DHT22;9708;53.114;9.388;2023-02-01T13:11:45;3.60;99.90
19152;DHT22;9708;53.114;9.388;2023-02-01T13:14:19;3.70;99.90
19152;DHT22;9708;53.114;9.388;2023-02-01T13:16:51;3.80;99.90
19152;DHT22;9708;53.114;9.388;2023-02-01T13:19:24;3.80;99.90
19152;DHT22;9708;53.114;9.388;2023-02-01T13:21:57;3.80;99.90
19152;DHT22;9708;53.114;9.388;2023-02-01T13:24:31;3.80;99.90
19152;DHT22;9708;53.114;9.388;2023-02-01T13:27:00;4.00;99.90
19152;DHT22;9708;53.114;9.388;2023-02-01T13:29:28;4.20;99.90
19152;DHT22;9708;53.114;9.388;2023-02-01T13:32:13;4.90;99.90
19152;DHT22;9708;53.114;9.388;2023-02-01T13:40:40;6.70;99.90
19152;DHT22;9708;53.114;9.388;2023-02-01T13:43:12;6.60;99.90
19152;DHT22;9708;53.114;9.388;2023-02-01T13:45:46;6.50;99.90
19152;DHT22;9708;53.114;9.388;2023-02-01T13:48:20;6.40;99.90
19152;DHT22;9708;53.114;9.388;2023-02-01T13:50:53;6.60;99.90
19152;DHT22;9708;53.114;9.388;2023-02-01T13:53:26;6.30;99.90
19152;DHT22;9708;53.114;9.388;2023-02-01T13:55:59;6.10;99.90
19152;DHT22;9708;53.114;9.388;2023-02-01T13:58:33;6.20;99.90
19152;DHT22;9708;53.114;9.388;2023-02-01T14:01:32;6.00;99.90
19152;DHT22;9708;53.114;9.388;2023-02-01T14:04:00;5.70;99.90
19152;DHT22;9708;53.114;9.388;2023-02-01T14:06:42;5.60;99.90
19152;DHT22;9708;53.114;9.388;2023-02-01T14:09:19;5.70;99.90
19152;DHT22;9708;53.114;9.388;2023-02-01T14:11:50;5.80;99.90
19152;DHT22;9708;53.114;9.388;2023-02-01T14:14:44;5.60;99.90
19152;DHT22;9708;53.114;9.388;2023-02-01T14:17:30;5.80;99.90
19152;DHT22;9708;53.114;9.388;2023-02-01T14:23:38;5.90;99.90
19152;DHT22;9708;53.114;9.388;2023-02-01T14:26:16;6.10;99.90
19152;DHT22;9708;53.114;9.388;2023-02-01T14:28:49;6.10;99.90
19152;DHT22;9708;53.114;9.388;2023-02-01T14:31:43;6.20;99.90
19152;DHT22;9708;53.114;9.388;2023-02-01T14:34:14;6.40;99.90
19152;DHT22;9708;53.114;9.388;2023-02-01T14:36:45;6.60;99.90
19152;DHT22;9708;53.114;9.388;2023-02-01T14:39:30;6.60;99.90
19152;DHT22;9708;53.114;9.388;2023-02-01T14:41:59;6.60;99.90
19152;DHT22;9708;53.114;9.388;2023-02-01T14:44:30;6.50;99.90
19152;DHT22;9708;53.114;9.388;2023-02-01T14:49:56;6.50;99.90
19152;DHT22;9708;53.114;9.388;2023-02-01T14:52:30;6.60;99.90
19152;DHT22;9708;53.114;9.388;2023-02-01T14:55:04;6.70;99.90
19152;DHT22;9708;53.114;9.388;2023-02-01T14:57:34;6.60;99.90
19152;DHT22;9708;53.114;9.388;2023-02-01T15:00:16;6.30;99.90
19152;DHT22;9708;53.114;9.388;2023-02-01T15:02:43;6.10;99.90
19152;DHT22;9708;53.114;9.388;2023-02-01T15:05:30;6.20;99.90
19152;DHT22;9708;53.114;9.388;2023-02-01T15:08:04;6.20;99.90
19152;DHT22;9708;53.114;9.388;2023-02-01T15:10:39;6.20;99.90
19152;DHT22;9708;53.114;9.388;2023-02-01T15:13:18;6.20;99.90
19152;DHT22;9708;53.114;9.388;2023-02-01T15:15:45;6.00;99.90
19152;DHT22;9708;53.114;9.388;2023-02-01T15:18:25;6.00;99.90
19152;DHT22;9708;53.114;9.388;2023-02-01T15:20:56;5.80;99.90
19152;DHT22;9708;53.114;9.388;2023-02-01T15:23:23;5.70;99.90
19152;DHT22;9708;53.114;9.388;2023-02-01T15:25:52;5.60;99.90
19152;DHT22;9708;53.114;9.388;2023-02-01T15:28:18;5.50;99.90
19152;DHT22;9708;53.114;9.388;2023-02-01T15:30:54;5.30;99.90
19152;DHT22;9708;53.114;9.388;2023-02-01T15:33:21;5.40;99.90
19152;DHT22;9708;53.114;9.388;2023-02-01T15:35:49;5.40;99.90
19152;DHT22;9708;53.114;9.388;2023-02-01T15:38:37;5.20;99.90
19152;DHT22;9708;53.114;9.388;2023-02-01T15:41:11;5.20;99.90
19152;DHT22;9708;53.114;9.388;2023-02-01T15:43:42;5.30;99.90
19152;DHT22;9708;53.114;9.388;2023-02-01T15:46:13;5.20;99.90
19152;DHT22;9708;53.114;9.388;2023-02-01T15:48:44;5.30;99.90
19152;DHT22;9708;53.114;9.388;2023-02-01T15:51:13;5.30;99.90
19152;DHT22;9708;53.114;9.388;2023-02-01T15:53:46;4.80;99.90
19152;DHT22;9708;53.114;9.388;2023-02-01T15:56:14;4.60;99.90
19152;DHT22;9708;53.114;9.388;2023-02-01T15:58:44;4.40;99.90
19152;DHT22;9708;53.114;9.388;2023-02-01T16:01:13;4.40;99.90
19152;DHT22;9708;53.114;9.388;2023-02-01T16:03:42;4.40;99.90
19152;DHT22;9708;53.114;9.388;2023-02-01T16:06:11;4.50;99.90
19152;DHT22;9708;53.114;9.388;2023-02-01T16:08:49;4.70;99.90
19152;DHT22;9708;53.114;9.388;2023-02-01T16:11:27;4.70;99.90
19152;DHT22;9708;53.114;9.388;2023-02-01T16:13:56;4.80;99.90
19152;DHT22;9708;53.114;9.388;2023-02-01T16:16:22;4.80;99.90
19152;DHT22;9708;53.114;9.388;2023-02-01T16:18:49;4.90;99.90
19152;DHT22;9708;53.114;9.388;2023-02-01T16:21:16;5.00;99.90
19152;DHT22;9708;53.114;9.388;2023-02-01T16:23:43;5.00;99.90
19152;DHT22;9708;53.114;9.388;2023-02-01T16:26:10;5.10;99.90
19152;DHT22;9708;53.114;9.388;2023-02-01T16:28:38;5.10;99.90
19152;DHT22;9708;53.114;9.388;2023-02-01T16:31:08;5.10;99.90
19152;DHT22;9708;53.114;9.388;2023-02-01T16:33:39;5.10;99.90
19152;DHT22;9708;53.114;9.388;2023-02-01T16:36:07;5.10;99.90
19152;DHT22;9708;53.114;9.388;2023-02-01T16:38:34;5.00;99.90
19152;DHT22;9708;53.114;9.388;2023-02-01T16:41:01;5.00;99.90
19152;DHT22;9708;53.114;9.388;2023-02-01T16:43:28;4.90;99.90
19152;DHT22;9708;53.114;9.388;2023-02-01T16:46:00;4.90;99.90
19152;DHT22;9708;53.114;9.388;2023-02-01T16:48:29;4.90;99.90
19152;DHT22;9708;53.114;9.388;2023-02-01T16:50:57;5.00;99.90
19152;DHT22;9708;53.114;9.388;2023-02-01T16:53:26;5.00;99.90
19152;DHT22;9708;53.114;9.388;2023-02-01T16:55:54;5.10;99.90
19152;DHT22;9708;53.114;9.388;2023-02-01T16:58:23;5.00;99.90
19152;DHT22;9708;53.114;9.388;2023-02-01T17:00:50;5.10;99.90
19152;DHT22;9708;53.114;9.388;2023-02-01T17:03:19;5.10;99.90
19152;DHT22;9708;53.114;9.388;2023-02-01T17:05:48;5.10;99.90
19152;DHT22;9708;53.114;9.388;2023-02-01T17:08:18;5.10;99.90
19152;DHT22;9708;53.114;9.388;2023-02-01T17:10:48;5.10;99.90
19152;DHT22;9708;53.114;9.388;2023-02-01T17:13:16;5.20;99.90
19152;DHT22;9708;53.114;9.388;2023-02-01T17:15:48;5.20;99.90
19152;DHT22;9708;53.114;9.388;2023-02-01T17:20:45;5.30;99.90
19152;DHT22;9708;53.114;9.388;2023-02-01T17:23:13;5.30;99.90
19152;DHT22;9708;53.114;9.388;2023-02-01T17:25:40;5.30;99.90
19152;DHT22;9708;53.114;9.388;2023-02-01T17:28:08;5.30;99.90
19152;DHT22;9708;53.114;9.388;2023-02-01T17:30:36;5.20;99.90
19152;DHT22;9708;53.114;9.388;2023-02-01T17:33:04;5.00;99.90
19152;DHT22;9708;53.114;9.388;2023-02-01T17:35:32;4.90;99.90
19152;DHT22;9708;53.114;9.388;2023-02-01T17:38:00;4.80;99.90
19152;DHT22;9708;53.114;9.388;2023-02-01T17:40:27;4.70;99.90
19152;DHT22;9708;53.114;9.388;2023-02-01T17:42:54;4.60;99.90
19152;DHT22;9708;53.114;9.388;2023-02-01T17:45:32;4.60;99.90
19152;DHT22;9708;53.114;9.388;2023-02-01T17:48:01;4.70;99.90
19152;DHT22;9708;53.114;9.388;2023-02-01T17:50:30;4.80;99.90
19152;DHT22;9708;53.114;9.388;2023-02-01T17:52:57;4.80;99.90
19152;DHT22;9708;53.114;9.388;2023-02-01T17:55:26;4.80;99.90
19152;DHT22;9708;53.114;9.388;2023-02-01T17:57:52;4.80;99.90
19152;DHT22;9708;53.114;9.388;2023-02-01T18:00:20;4.90;99.90
19152;DHT22;9708;53.114;9.388;2023-02-01T18:02:47;4.90;99.90
19152;DHT22;9708;53.114;9.388;2023-02-01T18:05:21;5.00;99.90
19152;DHT22;9708;53.114;9.388;2023-02-01T18:07:49;5.00;99.90
19152;DHT22;9708;53.114;9.388;2023-02-01T18:10:16;5.00;99.90
19152;DHT22;9708;53.114;9.388;2023-02-01T18:12:45;5.00;99.90
19152;DHT22;9708;53.114;9.388;2023-02-01T18:15:17;5.10;99.90
19152;DHT22;9708;53.114;9.388;2023-02-01T18:17:44;5.10;99.90
19152;DHT22;9708;53.114;9.388;2023-02-01T18:20:15;5.10;99.90
19152;DHT22;9708;53.114;9.388;2023-02-01T18:22:42;5.10;99.90
19152;DHT22;9708;53.114;9.388;2023-02-01T18:25:17;5.10;99.90
19152;DHT22;9708;53.114;9.388;2023-02-01T18:27:47;5.20;99.90
19152;DHT22;9708;53.114;9.388;2023-02-01T18:30:15;5.20;99.90
19152;DHT22;9708;53.114;9.388;2023-02-01T18:32:42;5.20;99.90
19152;DHT22;9708;53.114;9.388;2023-02-01T18:35:18;5.20;99.90
19152;DHT22;9708;53.114;9.388;2023-02-01T18:37:45;5.20;99.90
19152;DHT22;9708;53.114;9.388;2023-02-01T18:40:14;5.20;99.90
19152;DHT22;9708;53.114;9.388;2023-02-01T18:42:41;5.30;99.90
19152;DHT22;9708;53.114;9.388;2023-02-01T18:45:29;5.20;99.90
19152;DHT22;9708;53.114;9.388;2023-02-01T18:47:56;5.20;99.90
19152;DHT22;9708;53.114;9.388;2023-02-01T18:50:24;5.20;99.90
19152;DHT22;9708;53.114;9.388;2023-02-01T18:52:55;5.40;99.90
19152;DHT22;9708;53.114;9.388;2023-02-01T18:55:23;5.40;99.90
19152;DHT22;9708;53.114;9.388;2023-02-01T18:57:50;5.40;99.90
19152;DHT22;9708;53.114;9.388;2023-02-01T19:00:19;5.50;99.90
19152;DHT22;9708;53.114;9.388;2023-02-01T19:02:47;5.50;99.90
19152;DHT22;9708;53.114;9.388;2023-02-01T19:05:14;5.50;99.90
19152;DHT22;9708;53.114;9.388;2023-02-01T19:07:42;5.50;99.90
19152;DHT22;9708;53.114;9.388;2023-02-01T19:10:12;5.50;99.90
19152;DHT22;9708;53.114;9.388;2023-02-01T19:12:39;5.50;99.90
19152;DHT22;9708;53.114;9.388;2023-02-01T19:15:08;5.50;99.90
19152;DHT22;9708;53.114;9.388;2023-02-01T19:17:39;5.40;99.90
19152;DHT22;9708;53.114;9.388;2023-02-01T19:20:07;5.40;99.90
19152;DHT22;9708;53.114;9.388;2023-02-01T19:22:34;5.30;99.90
19152;DHT22;9708;53.114;9.388;2023-02-01T19:25:01;5.30;99.90
19152;DHT22;9708;53.114;9.388;2023-02-01T19:27:28;5.30;99.90
19152;DHT22;9708;53.114;9.388;2023-02-01T19:29:55;5.30;99.90
19152;DHT22;9708;53.114;9.388;2023-02-01T19:32:22;5.30;99.90
19152;DHT22;9708;53.114;9.388;2023-02-01T19:34:50;5.50;99.90
19152;DHT22;9708;53.114;9.388;2023-02-01T19:37:17;5.50;99.90
19152;DHT22;9708;53.114;9.388;2023-02-01T19:39:44;5.50;99.90
19152;DHT22;9708;53.114;9.388;2023-02-01T19:42:11;5.60;99.90
19152;DHT22;9708;53.114;9.388;2023-02-01T19:44:38;5.60;99.90
19152;DHT22;9708;53.114;9.388;2023-02-01T19:47:05;5.60;99.90
19152;DHT22;9708;53.114;9.388;2023-02-01T19:49:32;5.60;99.90
19152;DHT22;9708;53.114;9.388;2023-02-01T19:52:00;5.60;99.90
19152;DHT22;9708;53.114;9.388;2023-02-01T19:54:27;5.60;99.90
19152;DHT22;9708;53.114;9.388;2023-02-01T19:56:53;5.70;99.90
19152;DHT22;9708;53.114;9.388;2023-02-01T19:59:20;5.70;99.90
19152;DHT22;9708;53.114;9.388;2023-02-01T20:01:47;5.80;99.90
19152;DHT22;9708;53.114;9.388;2023-02-01T20:04:16;5.80;99.90
19152;DHT22;9708;53.114;9.388;2023-02-01T20:06:44;5.90;99.90
19152;DHT22;9708;53.114;9.388;2023-02-01T20:09:16;5.90;99.90
19152;DHT22;9708;53.114;9.388;2023-02-01T20:11:43;5.80;99.90
19152;DHT22;9708;53.114;9.388;2023-02-01T20:14:11;5.80;99.90
19152;DHT22;9708;53.114;9.388;2023-02-01T20:16:37;5.90;99.90
19152;DHT22;9708;53.114;9.388;2023-02-01T20:19:04;5.90;99.90
19152;DHT22;9708;53.114;9.388;2023-02-01T20:21:32;5.80;99.90
19152;DHT22;9708;53.114;9.388;2023-02-01T20:23:59;5.90;99.90